Time;durP1;ratioP1;P1;durP2;ratioP2;P2;SDS_P1;SDS_P2;PMS_P1;PMS_P2;Temp;Humidity;BMP_temperature;BMP_pressure;BME280_temperature;BME280_humidity;BME280_pressure;Samples;Min_cycle;Max_cycle;Signal;HPM_P1;HPM_P2
2023/11/11 00:02:16;;;;;;;1.23;1.13;;;8.80;99.90;;;;;;5013174;28;20285;-83
2023/11/11 00:04:42;;;;;;;1.40;0.80;;;8.10;99.90;;;;;;5013521;28;20530;-83
2023/11/11 00:07:07;;;;;;;3.00;0.87;;;8.90;99.90;;;;;;5014196;28;20182;-83
2023/11/11 00:09:33;;;;;;;0.80;0.70;;;8.30;99.90;;;;;;5015446;28;20189;-83
2023/11/11 00:11:59;;;;;;;0.90;0.73;;;8.60;99.90;;;;;;5015479;28;20174;-83
2023/11/11 00:14:25;;;;;;;1.58;0.90;;;8.80;99.90;;;;;;5014666;28;20203;-82
2023/11/11 00:16:50;;;;;;;1.30;1.00;;;8.50;99.90;;;;;;5015924;28;20181;-82
2023/11/11 00:19:17;;;;;;;1.43;0.70;;;8.20;99.90;;;;;;5017634;28;20461;-83
2023/11/11 00:21:48;;;;;;;1.00;0.90;;;8.10;99.90;;;;;;5015973;28;20265;-82
2023/11/11 00:24:14;;;;;;;1.13;0.82;;;8.20;99.90;;;;;;5015661;28;20733;-83
2023/11/11 00:26:40;;;;;;;1.83;1.00;;;8.80;99.90;;;;;;5032047;28;20178;-83
2023/11/11 00:29:07;;;;;;;1.55;1.08;;;8.70;99.90;;;;;;5021734;28;20182;-82
2023/11/11 00:31:33;;;;;;;1.65;1.05;;;8.10;99.90;;;;;;5019817;28;20189;-82
2023/11/11 00:33:59;;;;;;;0.93;0.82;;;8.80;99.90;;;;;;5021119;28;20256;-83
2023/11/11 00:36:25;;;;;;;1.23;1.07;;;8.90;99.90;;;;;;5022712;28;20189;-82
2023/11/11 00:38:51;;;;;;;2.00;0.90;;;9.10;99.90;;;;;;5019047;28;20460;-82
2023/11/11 00:41:17;;;;;;;1.47;0.80;;;8.70;99.90;;;;;;5025576;28;20811;-82
2023/11/11 00:43:42;;;;;;;1.17;0.70;;;8.70;99.90;;;;;;5017886;28;20458;-82
2023/11/11 00:46:08;;;;;;;1.17;0.63;;;9.00;99.90;;;;;;5018130;28;20709;-82
2023/11/11 00:48:33;;;;;;;1.00;0.80;;;8.60;99.90;;;;;;5019217;28;20182;-82
2023/11/11 00:50:59;;;;;;;0.60;0.60;;;8.10;99.90;;;;;;5022098;28;20194;-82
2023/11/11 00:53:24;;;;;;;0.70;0.70;;;8.60;99.90;;;;;;5021309;28;20289;-82
2023/11/11 00:55:50;;;;;;;1.10;0.90;;;8.40;99.90;;;;;;5018386;28;20213;-83
2023/11/11 00:58:16;;;;;;;3.03;1.30;;;8.30;99.90;;;;;;5019114;28;20194;-82
2023/11/11 01:00:43;;;;;;;1.17;0.80;;;8.40;99.90;;;;;;5036916;28;20323;-83
2023/11/11 01:03:09;;;;;;;1.00;0.70;;;8.80;99.90;;;;;;5018012;28;20250;-82
2023/11/11 01:05:35;;;;;;;1.57;0.70;;;8.20;99.90;;;;;;5021485;28;20253;-83
2023/11/11 01:08:01;;;;;;;0.90;0.53;;;8.80;99.90;;;;;;5035583;28;20476;-83
2023/11/11 01:10:27;;;;;;;2.90;1.00;;;8.60;99.90;;;;;;5019584;28;20193;-82
2023/11/11 01:12:54;;;;;;;1.10;0.60;;;8.60;99.90;;;;;;5018268;28;20452;-82
2023/11/11 01:15:20;;;;;;;1.40;0.85;;;8.70;99.90;;;;;;5020695;28;20190;-81
2023/11/11 01:17:46;;;;;;;0.70;0.63;;;8.20;99.90;;;;;;5021868;28;20244;-83
2023/11/11 01:20:14;;;;;;;0.80;0.63;;;8.30;99.90;;;;;;5021858;28;20186;-83
2023/11/11 01:22:40;;;;;;;2.65;0.70;;;8.60;99.90;;;;;;5020217;28;20561;-83
2023/11/11 01:25:12;;;;;;;1.10;0.90;;;8.80;99.90;;;;;;5018360;28;20203;-81
2023/11/11 01:27:40;;;;;;;0.70;0.60;;;8.60;99.90;;;;;;5020431;28;20182;-81
2023/11/11 01:30:07;;;;;;;2.35;0.75;;;8.50;99.90;;;;;;5037939;28;20182;-82
2023/11/11 01:32:33;;;;;;;0.98;0.70;;;8.80;99.90;;;;;;5037318;28;20551;-82
2023/11/11 01:34:58;;;;;;;0.70;0.60;;;8.20;99.90;;;;;;5021288;28;22355;-81
2023/11/11 01:37:24;;;;;;;0.70;0.50;;;8.50;99.90;;;;;;5020580;28;20201;-81
2023/11/11 01:39:50;;;;;;;1.20;0.80;;;8.70;99.90;;;;;;5017957;28;20195;-82
2023/11/11 01:42:15;;;;;;;0.70;0.60;;;8.40;99.90;;;;;;5018363;28;20233;-81
2023/11/11 01:44:41;;;;;;;1.63;0.90;;;8.80;99.90;;;;;;5014482;28;20202;-82
2023/11/11 01:47:07;;;;;;;0.60;0.50;;;8.90;99.90;;;;;;5017993;28;20186;-81
2023/11/11 01:49:37;;;;;;;1.50;0.57;;;8.90;99.90;;;;;;5018093;28;20286;-82
2023/11/11 01:52:05;;;;;;;1.35;0.60;;;8.90;99.90;;;;;;5015386;28;20179;-81
2023/11/11 01:54:31;;;;;;;0.80;0.60;;;9.20;99.90;;;;;;5016213;28;20568;-83
2023/11/11 01:56:56;;;;;;;0.73;0.53;;;8.50;99.90;;;;;;5033198;28;20188;-83
2023/11/11 01:59:25;;;;;;;0.60;0.50;;;9.20;99.90;;;;;;5016388;28;20175;-83
2023/11/11 02:01:51;;;;;;;0.68;0.52;;;9.30;99.90;;;;;;5016323;28;20178;-82
2023/11/11 02:04:18;;;;;;;0.60;0.43;;;9.10;99.90;;;;;;5033696;28;20256;-82
2023/11/11 02:06:47;;;;;;;0.68;0.57;;;9.60;99.90;;;;;;5015075;28;20408;-83
2023/11/11 02:09:15;;;;;;;0.80;0.50;;;8.80;99.90;;;;;;5017045;28;20183;-83
2023/11/11 02:11:41;;;;;;;1.23;0.70;;;9.10;99.90;;;;;;5016513;28;21059;-82
2023/11/11 02:14:08;;;;;;;0.98;0.60;;;9.00;99.90;;;;;;5026851;28;20592;-81
2023/11/11 02:16:34;;;;;;;0.70;0.63;;;8.70;99.90;;;;;;5014955;28;20179;-82
2023/11/11 02:19:00;;;;;;;0.80;0.50;;;8.60;99.90;;;;;;5014862;28;20194;-83
2023/11/11 02:21:31;;;;;;;0.60;0.60;;;8.50;99.90;;;;;;5015625;28;20186;-82
2023/11/11 02:24:02;;;;;;;0.60;0.50;;;9.00;99.90;;;;;;5010847;28;20213;-82
2023/11/11 02:26:27;;;;;;;1.00;0.60;;;9.20;99.90;;;;;;5017039;28;20206;-82
2023/11/11 02:28:53;;;;;;;0.60;0.50;;;9.50;99.90;;;;;;5015249;28;20198;-82
2023/11/11 02:31:18;;;;;;;0.80;0.50;;;8.50;99.90;;;;;;5014087;28;20182;-82
2023/11/11 02:33:44;;;;;;;1.10;0.70;;;8.70;99.90;;;;;;5012402;28;20233;-82
2023/11/11 02:36:10;;;;;;;0.70;0.50;;;8.60;99.90;;;;;;5012509;28;20344;-82
2023/11/11 02:38:38;;;;;;;0.70;0.50;;;9.40;99.90;;;;;;5014407;28;20194;-82
2023/11/11 02:41:04;;;;;;;0.80;0.77;;;9.00;99.90;;;;;;5013915;28;20187;-83
2023/11/11 02:43:29;;;;;;;1.13;0.67;;;8.80;99.90;;;;;;5028713;28;20717;-83
2023/11/11 02:45:55;;;;;;;0.80;0.50;;;9.30;99.90;;;;;;5015331;28;20257;-83
2023/11/11 02:48:21;;;;;;;0.60;0.60;;;8.80;99.90;;;;;;5011879;28;20715;-83
2023/11/11 02:50:46;;;;;;;0.60;0.50;;;8.40;99.90;;;;;;5012325;28;20178;-83
2023/11/11 02:53:12;;;;;;;0.70;0.50;;;8.30;99.90;;;;;;5012884;28;20205;-83
2023/11/11 02:55:37;;;;;;;0.60;0.40;;;8.70;99.90;;;;;;5030832;28;20244;-83
2023/11/11 02:58:03;;;;;;;0.73;0.50;;;8.10;99.90;;;;;;5011566;28;20185;-83
2023/11/11 03:00:28;;;;;;;0.73;0.50;;;8.10;99.90;;;;;;5014169;28;20213;-82
2023/11/11 03:02:54;;;;;;;1.20;0.50;;;8.00;99.90;;;;;;5015300;28;20212;-80
2023/11/11 03:05:19;;;;;;;0.83;0.60;;;8.50;99.90;;;;;;5013507;28;20221;-82
2023/11/11 03:07:45;;;;;;;0.60;0.50;;;8.50;99.90;;;;;;5013402;28;20206;-81
2023/11/11 03:10:14;;;;;;;0.70;0.60;;;8.60;99.90;;;;;;5012833;28;20186;-81
2023/11/11 03:12:41;;;;;;;0.80;0.60;;;8.60;99.90;;;;;;5014120;28;20245;-83
2023/11/11 03:15:08;;;;;;;0.90;0.63;;;8.50;99.90;;;;;;5013696;28;20197;-83
2023/11/11 03:17:33;;;;;;;0.70;0.60;;;8.60;99.90;;;;;;5015875;28;20274;-81
2023/11/11 03:19:59;;;;;;;1.07;0.70;;;8.50;99.90;;;;;;5014891;28;20202;-81
2023/11/11 03:22:25;;;;;;;1.80;0.73;;;8.60;99.90;;;;;;5029734;28;20183;-81
2023/11/11 03:24:50;;;;;;;0.90;0.63;;;8.70;99.90;;;;;;5016209;28;20972;-81
2023/11/11 03:27:16;;;;;;;0.70;0.67;;;8.70;99.90;;;;;;5015443;28;20202;-82
2023/11/11 03:29:42;;;;;;;0.67;0.60;;;8.80;99.90;;;;;;5014191;28;20193;-82
2023/11/11 03:32:07;;;;;;;0.77;0.70;;;8.70;99.90;;;;;;5035345;28;20449;-83
2023/11/11 03:34:33;;;;;;;0.90;0.70;;;8.30;99.90;;;;;;5016125;28;20846;-81
2023/11/11 03:36:59;;;;;;;0.60;0.60;;;8.90;99.90;;;;;;5012192;28;20195;-80
2023/11/11 03:39:25;;;;;;;0.80;0.70;;;8.40;99.90;;;;;;5012880;28;20408;-80
2023/11/11 03:41:51;;;;;;;0.80;0.70;;;8.80;99.90;;;;;;5014255;28;20187;-82
2023/11/11 03:44:16;;;;;;;2.20;0.80;;;9.00;99.90;;;;;;5028858;28;20252;-82
2023/11/11 03:46:42;;;;;;;0.90;0.90;;;8.80;99.90;;;;;;5031394;28;20464;-82
2023/11/11 03:49:08;;;;;;;0.80;0.60;;;8.80;99.90;;;;;;5016070;28;20389;-82
2023/11/11 03:51:33;;;;;;;1.47;0.77;;;8.60;99.90;;;;;;5011725;28;20420;-80
2023/11/11 03:53:59;;;;;;;0.80;0.60;;;8.50;99.90;;;;;;5031910;28;20213;-82
2023/11/11 03:56:25;;;;;;;1.60;0.87;;;9.00;99.90;;;;;;5013893;28;20652;-81
2023/11/11 03:58:50;;;;;;;1.00;0.90;;;8.80;99.90;;;;;;5010701;28;20174;-80
2023/11/11 04:01:16;;;;;;;2.30;0.97;;;9.30;99.90;;;;;;5015465;28;20496;-80
2023/11/11 04:03:43;;;;;;;1.20;0.90;;;8.90;99.90;;;;;;5013761;28;20202;-80
2023/11/11 04:06:10;;;;;;;1.02;0.93;;;8.90;99.90;;;;;;5013992;28;20584;-81
2023/11/11 04:08:36;;;;;;;1.00;0.82;;;8.70;99.90;;;;;;5014594;28;20182;-82
2023/11/11 04:11:06;;;;;;;1.20;1.00;;;8.90;99.90;;;;;;5011146;28;20498;-82
2023/11/11 04:13:37;;;;;;;1.33;0.85;;;8.70;99.90;;;;;;5013516;28;20203;-82
2023/11/11 04:16:03;;;;;;;0.82;0.70;;;8.80;99.90;;;;;;5013779;28;20221;-80
2023/11/11 04:18:29;;;;;;;0.90;0.70;;;8.90;99.90;;;;;;5013729;28;20187;-81
2023/11/11 04:20:54;;;;;;;1.00;0.80;;;8.90;99.90;;;;;;5031129;28;20245;-82
2023/11/11 04:23:22;;;;;;;0.70;0.70;;;8.80;99.90;;;;;;5010154;28;20205;-80
2023/11/11 04:25:47;;;;;;;1.00;0.70;;;9.00;99.90;;;;;;5012973;28;20202;-81
2023/11/11 04:28:13;;;;;;;1.00;0.80;;;8.70;99.90;;;;;;5012425;28;20189;-81
2023/11/11 04:30:40;;;;;;;0.70;0.70;;;8.60;99.90;;;;;;5028869;28;20830;-86
2023/11/11 04:33:05;;;;;;;0.70;0.70;;;8.20;99.90;;;;;;5029525;28;20261;-85
2023/11/11 04:35:31;;;;;;;1.07;0.90;;;8.20;99.90;;;;;;5029196;28;20190;-85
2023/11/11 04:37:57;;;;;;;1.23;0.80;;;8.10;99.90;;;;;;5010531;28;20635;-86
2023/11/11 04:40:23;;;;;;;0.80;0.70;;;8.60;99.90;;;;;;5007224;28;20594;-85
2023/11/11 04:42:48;;;;;;;1.00;1.00;;;9.00;99.90;;;;;;5013173;28;20210;-85
2023/11/11 04:45:14;;;;;;;1.03;0.97;;;8.20;99.90;;;;;;5011941;28;20511;-85
2023/11/11 04:47:39;;;;;;;0.77;0.77;;;8.00;99.90;;;;;;5013185;28;20174;-85
2023/11/11 04:50:05;;;;;;;1.20;1.10;;;8.80;99.90;;;;;;5015605;28;20178;-85
2023/11/11 04:52:31;;;;;;;1.88;1.23;;;8.30;99.90;;;;;;5029311;28;20178;-86
2023/11/11 04:54:57;;;;;;;0.83;0.83;;;8.50;99.90;;;;;;5012795;28;20276;-86
2023/11/11 04:57:22;;;;;;;1.90;1.00;;;8.60;99.90;;;;;;5011375;28;20423;-85
2023/11/11 04:59:48;;;;;;;1.40;1.30;;;8.60;99.90;;;;;;5013036;28;20234;-83
2023/11/11 05:02:13;;;;;;;2.60;1.20;;;8.70;99.90;;;;;;5012618;28;20178;-83
2023/11/11 05:04:39;;;;;;;1.53;1.23;;;8.30;99.90;;;;;;5012506;28;20221;-86
2023/11/11 05:07:05;;;;;;;1.23;1.13;;;8.40;99.90;;;;;;5010874;28;20576;-85
2023/11/11 05:09:30;;;;;;;1.30;1.20;;;7.90;99.90;;;;;;5011370;28;20552;-85
2023/11/11 05:11:56;;;;;;;1.33;1.10;;;8.30;99.90;;;;;;5010642;28;20186;-85
2023/11/11 05:17:53;;;;;;;1.50;1.40;;;9.00;99.90;;;;;;5015424;28;20206;-84
2023/11/11 05:28:51;;;;;;;1.33;1.10;;;7.60;99.90;;;;;;5483079;22;20249;-87
2023/11/11 05:31:16;;;;;;;1.40;1.30;;;8.40;99.90;;;;;;5014625;28;20186;-89
2023/11/11 05:33:42;;;;;;;1.63;1.27;;;8.60;99.90;;;;;;5018865;28;20750;-89
2023/11/11 05:36:09;;;;;;;1.20;1.10;;;8.50;99.90;;;;;;5021130;28;20240;-89
2023/11/11 05:38:34;;;;;;;1.92;1.10;;;8.10;99.90;;;;;;5015379;28;20178;-87
2023/11/11 05:41:00;;;;;;;1.40;1.30;;;8.30;99.90;;;;;;5019121;28;20661;-89
2023/11/11 05:43:26;;;;;;;1.77;1.67;;;8.30;99.90;;;;;;5012460;28;20234;-88
2023/11/11 05:45:51;;;;;;;1.10;1.00;;;7.80;99.90;;;;;;5011759;28;20207;-87
2023/11/11 05:48:18;;;;;;;1.60;1.50;;;8.30;99.90;;;;;;5011930;28;20664;-88
2023/11/11 05:50:44;;;;;;;1.67;1.30;;;8.30;99.90;;;;;;5018480;28;20544;-89
2023/11/11 05:53:10;;;;;;;1.77;1.57;;;7.70;99.90;;;;;;5014062;28;20293;-87
2023/11/11 05:55:36;;;;;;;1.87;1.50;;;8.00;99.90;;;;;;5019152;28;20433;-87
2023/11/11 05:58:02;;;;;;;1.73;1.60;;;7.80;99.90;;;;;;5016420;28;20468;-88
2023/11/11 06:00:28;;;;;;;1.40;1.30;;;7.90;99.90;;;;;;5018091;28;20189;-87
2023/11/11 06:02:53;;;;;;;1.97;1.60;;;8.20;99.90;;;;;;5019003;28;20233;-88
2023/11/11 06:05:19;;;;;;;1.73;1.27;;;8.20;99.90;;;;;;5017039;28;20202;-88
2023/11/11 06:07:44;;;;;;;1.73;1.63;;;7.90;99.90;;;;;;5017675;28;20514;-88
2023/11/11 06:10:11;;;;;;;1.60;1.50;;;8.00;99.90;;;;;;5016654;28;20182;-88
2023/11/11 06:12:37;;;;;;;2.70;1.50;;;8.20;99.90;;;;;;5010042;28;20179;-88
2023/11/11 06:15:05;;;;;;;2.77;1.90;;;8.00;99.90;;;;;;5009392;28;20256;-87
2023/11/11 06:17:31;;;;;;;2.53;1.83;;;8.20;99.90;;;;;;5013492;28;20850;-88
2023/11/11 06:19:58;;;;;;;2.10;1.90;;;8.50;99.90;;;;;;5015505;28;20210;-88
2023/11/11 06:22:23;;;;;;;3.85;1.90;;;7.60;99.90;;;;;;5016696;28;20194;-88
2023/11/11 06:24:49;;;;;;;1.90;1.60;;;8.50;99.90;;;;;;5016665;28;20737;-88
2023/11/11 06:27:14;;;;;;;1.80;1.70;;;8.10;99.90;;;;;;5017592;28;20731;-87
2023/11/11 06:29:40;;;;;;;1.60;1.50;;;8.30;99.90;;;;;;5014924;28;20198;-87
2023/11/11 06:32:05;;;;;;;1.80;1.70;;;8.40;99.90;;;;;;5015612;28;20175;-88
2023/11/11 06:34:31;;;;;;;1.77;1.67;;;8.30;99.90;;;;;;5018218;28;20280;-87
2023/11/11 06:36:57;;;;;;;1.60;1.40;;;8.30;99.90;;;;;;5016437;28;20575;-87
2023/11/11 06:39:22;;;;;;;1.70;1.60;;;8.20;99.90;;;;;;5021338;28;20217;-88
2023/11/11 06:41:49;;;;;;;2.07;1.87;;;8.60;99.90;;;;;;5027832;28;20455;-88
2023/11/11 06:44:15;;;;;;;1.85;1.67;;;8.30;99.90;;;;;;5013290;28;20202;-88
2023/11/11 06:46:40;;;;;;;2.10;1.80;;;8.30;99.90;;;;;;5014289;28;20217;-88
2023/11/11 06:49:06;;;;;;;2.03;1.60;;;8.30;99.90;;;;;;5015978;28;20601;-88
2023/11/11 06:51:33;;;;;;;2.83;1.50;;;8.30;99.90;;;;;;5032001;28;20293;-88
2023/11/11 06:54:00;;;;;;;2.15;1.30;;;8.20;99.90;;;;;;5017573;28;20329;-88
2023/11/11 06:56:26;;;;;;;1.63;1.20;;;8.10;99.90;;;;;;5017035;28;20182;-88
2023/11/11 06:58:51;;;;;;;1.70;1.60;;;8.30;99.90;;;;;;5015806;28;20198;-88
2023/11/11 07:01:22;;;;;;;3.40;1.40;;;8.20;99.90;;;;;;5015236;28;20194;-88
2023/11/11 07:03:49;;;;;;;2.30;1.90;;;8.40;99.90;;;;;;5016278;28;20285;-87
2023/11/11 07:06:22;;;;;;;1.52;1.20;;;8.40;99.90;;;;;;5012358;28;20619;-88
2023/11/11 07:08:51;;;;;;;1.50;1.40;;;8.20;99.90;;;;;;5013572;28;20179;-88
2023/11/11 07:11:17;;;;;;;3.88;1.30;;;8.50;99.90;;;;;;5009293;28;20175;-88
2023/11/11 07:13:44;;;;;;;1.45;1.35;;;9.00;99.90;;;;;;5012366;28;20228;-88
2023/11/11 07:16:13;;;;;;;1.40;1.30;;;8.50;99.90;;;;;;5016560;28;20187;-88
2023/11/11 07:18:40;;;;;;;1.98;1.80;;;8.40;99.90;;;;;;5017231;28;20178;-88
2023/11/11 07:21:06;;;;;;;1.27;1.17;;;8.80;99.90;;;;;;5016848;28;20195;-88
2023/11/11 07:23:31;;;;;;;1.90;1.50;;;8.70;99.90;;;;;;4996565;28;20221;-88
2023/11/11 07:25:58;;;;;;;1.33;1.20;;;8.80;99.90;;;;;;5014599;28;20233;-87
2023/11/11 07:28:24;;;;;;;1.30;1.20;;;8.80;99.90;;;;;;5031516;28;20221;-85
2023/11/11 07:30:50;;;;;;;1.40;1.30;;;8.50;99.90;;;;;;5023362;28;20559;-85
2023/11/11 07:33:16;;;;;;;1.10;1.00;;;9.00;99.90;;;;;;5017864;28;20460;-89
2023/11/11 07:35:42;;;;;;;1.00;0.80;;;9.10;99.90;;;;;;5017420;28;20222;-89
2023/11/11 07:38:07;;;;;;;1.53;1.13;;;8.80;99.90;;;;;;5015909;28;20286;-89
2023/11/11 07:40:33;;;;;;;1.40;1.00;;;8.50;99.90;;;;;;5016776;28;20206;-88
2023/11/11 07:42:58;;;;;;;1.57;0.90;;;8.90;99.90;;;;;;5014809;28;20209;-88
2023/11/11 07:45:25;;;;;;;1.30;1.20;;;8.80;99.90;;;;;;5014700;28;20205;-89
2023/11/11 07:47:52;;;;;;;0.93;0.93;;;8.90;99.90;;;;;;5013518;28;20207;-88
2023/11/11 07:50:19;;;;;;;1.08;1.00;;;9.00;99.90;;;;;;5018394;28;20179;-89
2023/11/11 07:52:45;;;;;;;1.10;0.98;;;8.70;99.90;;;;;;5021444;28;20804;-88
2023/11/11 07:55:10;;;;;;;1.80;0.93;;;9.30;99.90;;;;;;5015769;28;20195;-87
2023/11/11 07:57:36;;;;;;;1.80;1.70;;;9.10;99.90;;;;;;5015224;28;20423;-89
2023/11/11 08:00:06;;;;;;;1.53;1.20;;;8.50;99.90;;;;;;5018263;28;20288;-89
2023/11/11 08:02:32;;;;;;;1.58;1.10;;;8.70;99.90;;;;;;5017840;28;20452;-88
2023/11/11 08:04:57;;;;;;;1.13;1.03;;;9.10;99.90;;;;;;5018004;28;20632;-90
2023/11/11 08:07:23;;;;;;;1.20;1.10;;;8.60;99.90;;;;;;5015444;28;20412;-89
2023/11/11 08:09:50;;;;;;;1.93;1.53;;;8.90;99.90;;;;;;5017511;28;20174;-86
2023/11/11 08:12:16;;;;;;;1.33;1.13;;;9.10;99.90;;;;;;5040074;28;20183;-87
2023/11/11 08:14:41;;;;;;;1.48;1.35;;;8.90;99.90;;;;;;5037073;28;20201;-87
2023/11/11 08:17:07;;;;;;;2.10;1.40;;;9.00;99.90;;;;;;5043674;28;20203;-86
2023/11/11 08:19:33;;;;;;;1.10;0.97;;;8.90;99.90;;;;;;5041976;28;20174;-87
2023/11/11 08:21:58;;;;;;;1.63;1.20;;;9.10;99.90;;;;;;5033614;28;20170;-87
2023/11/11 08:24:24;;;;;;;1.70;1.53;;;9.30;99.90;;;;;;5035756;28;20520;-87
2023/11/11 08:26:49;;;;;;;1.30;1.20;;;8.90;99.90;;;;;;5033032;28;20230;-87
2023/11/11 08:29:15;;;;;;;2.80;1.10;;;8.70;99.90;;;;;;5022427;28;20214;-87
2023/11/11 08:31:42;;;;;;;2.10;1.70;;;9.10;99.90;;;;;;5011975;28;20609;-88
2023/11/11 08:34:07;;;;;;;1.58;1.40;;;9.00;99.90;;;;;;5011313;28;20284;-87
2023/11/11 08:36:34;;;;;;;1.80;1.30;;;8.80;99.90;;;;;;5012341;28;20274;-87
2023/11/11 08:39:00;;;;;;;1.35;1.23;;;9.10;99.90;;;;;;5011566;28;20191;-87
2023/11/11 08:41:25;;;;;;;1.50;1.40;;;9.30;99.90;;;;;;5013815;28;20228;-87
2023/11/11 08:43:50;;;;;;;2.03;1.67;;;9.30;99.90;;;;;;5040649;28;20214;-88
2023/11/11 08:46:16;;;;;;;1.70;1.60;;;9.50;99.90;;;;;;5010945;28;20210;-87
2023/11/11 08:48:42;;;;;;;2.17;1.53;;;9.50;99.90;;;;;;5017940;28;20183;-87
2023/11/11 08:51:08;;;;;;;3.20;1.70;;;10.00;99.90;;;;;;5018948;28;20190;-88
2023/11/11 08:53:35;;;;;;;1.92;1.73;;;9.50;99.90;;;;;;5021700;28;20213;-88
2023/11/11 08:56:01;;;;;;;1.80;1.40;;;10.00;99.90;;;;;;5019177;28;20183;-88
2023/11/11 08:58:26;;;;;;;1.73;1.57;;;9.80;99.90;;;;;;5003322;28;20279;-87
2023/11/11 09:00:53;;;;;;;5.80;1.60;;;9.80;99.90;;;;;;5020678;28;20420;-87
2023/11/11 09:03:18;;;;;;;1.87;1.60;;;9.50;99.90;;;;;;5035828;28;20230;-86
2023/11/11 09:05:44;;;;;;;1.73;1.63;;;10.10;99.90;;;;;;5024716;28;20238;-90
2023/11/11 09:08:10;;;;;;;2.10;1.80;;;10.30;99.90;;;;;;5036743;28;20199;-90
2023/11/11 09:10:36;;;;;;;1.60;1.50;;;10.10;99.90;;;;;;5018494;28;20645;-89
2023/11/11 09:13:02;;;;;;;1.92;1.73;;;10.30;99.90;;;;;;5013691;28;20219;-90
2023/11/11 09:15:28;;;;;;;4.03;1.50;;;10.30;99.90;;;;;;5016151;28;20179;-90
2023/11/11 09:17:53;;;;;;;2.03;1.60;;;10.40;99.90;;;;;;5017616;28;21532;-89
2023/11/11 09:20:21;;;;;;;2.07;1.40;;;10.10;99.90;;;;;;5017960;28;20189;-90
2023/11/11 09:22:47;;;;;;;1.55;1.45;;;10.20;99.90;;;;;;5015993;28;20194;-90
2023/11/11 09:25:14;;;;;;;2.03;1.83;;;10.10;99.90;;;;;;5016649;28;20207;-90
2023/11/11 09:27:41;;;;;;;2.78;1.58;;;9.90;99.90;;;;;;5018357;28;20187;-90
2023/11/11 09:30:08;;;;;;;1.73;1.63;;;10.40;99.90;;;;;;5016431;28;20190;-91
2023/11/11 09:32:34;;;;;;;1.95;1.75;;;10.00;99.90;;;;;;5015911;28;20209;-91
2023/11/11 09:37:32;;;;;;;1.90;1.55;;;10.10;99.90;;;;;;5023856;28;20263;-81
2023/11/11 09:39:58;;;;;;;1.60;1.50;;;10.50;99.90;;;;;;5043914;28;20183;-82
2023/11/11 09:42:23;;;;;;;1.60;1.50;;;10.60;99.90;;;;;;5025438;28;20963;-82
2023/11/11 09:44:49;;;;;;;2.50;1.37;;;12.00;99.90;;;;;;5024422;28;20215;-81
2023/11/11 09:47:17;;;;;;;2.60;1.63;;;10.70;99.40;;;;;;5026477;28;20188;-81
2023/11/11 09:49:43;;;;;;;1.50;1.40;;;10.60;99.60;;;;;;5043536;28;20180;-81
2023/11/11 09:55:01;;;;;;;2.05;1.20;;;10.50;97.60;;;;;;5073435;23;20614;-81
2023/11/11 09:57:29;;;;;;;1.20;1.10;;;10.40;97.20;;;;;;5065280;28;20210;-81
2023/11/11 09:59:57;;;;;;;1.50;1.27;;;10.40;97.70;;;;;;5068478;28;20181;-82
2023/11/11 10:02:26;;;;;;;1.42;1.30;;;11.30;97.90;;;;;;5049895;28;20180;-81
2023/11/11 10:04:53;;;;;;;1.85;1.40;;;10.70;97.20;;;;;;5044621;28;20221;-82
2023/11/11 10:07:21;;;;;;;2.65;2.20;;;10.40;96.50;;;;;;5045182;28;20191;-82
2023/11/11 10:09:48;;;;;;;1.80;1.70;;;11.60;96.20;;;;;;5064866;28;20196;-82
2023/11/11 10:12:14;;;;;;;2.00;1.80;;;11.40;94.50;;;;;;5074231;28;20200;-82
2023/11/11 10:14:40;;;;;;;5.23;1.93;;;11.30;94.10;;;;;;5046855;28;20303;-82
2023/11/11 10:17:10;;;;;;;1.50;1.40;;;11.30;94.20;;;;;;5068946;28;20449;-81
2023/11/11 10:19:40;;;;;;;2.55;1.50;;;12.00;94.30;;;;;;5044980;28;20180;-81
2023/11/11 10:22:07;;;;;;;1.38;1.20;;;11.40;94.50;;;;;;5048009;28;20187;-82
2023/11/11 10:24:33;;;;;;;2.30;2.10;;;11.50;94.80;;;;;;5046536;28;20207;-82
2023/11/11 10:26:59;;;;;;;2.60;1.80;;;11.00;95.10;;;;;;5051357;28;20640;-82
2023/11/11 10:29:25;;;;;;;2.70;2.00;;;11.00;96.30;;;;;;5047781;28;20468;-81
2023/11/11 10:31:51;;;;;;;1.40;1.30;;;11.00;96.70;;;;;;5050233;28;20179;-82
2023/11/11 10:34:17;;;;;;;1.60;1.50;;;10.80;96.80;;;;;;5044897;28;20482;-81
2023/11/11 10:36:44;;;;;;;3.93;1.43;;;11.20;97.10;;;;;;5044216;28;20192;-81
2023/11/11 10:39:11;;;;;;;2.70;1.85;;;10.70;96.40;;;;;;5045405;28;20449;-81
2023/11/11 10:41:40;;;;;;;1.40;1.30;;;10.60;96.40;;;;;;5045201;28;20184;-82
2023/11/11 10:44:07;;;;;;;4.07;2.67;;;10.80;95.50;;;;;;5045765;28;20204;-82
2023/11/11 10:46:36;;;;;;;3.92;2.30;;;10.10;95.70;;;;;;5044313;28;20227;-83
2023/11/11 10:49:09;;;;;;;1.70;1.60;;;10.70;96.50;;;;;;5046287;28;20183;-82
2023/11/11 10:51:35;;;;;;;1.50;1.40;;;10.80;96.70;;;;;;5046973;28;20179;-81
2023/11/11 10:54:05;;;;;;;1.75;1.65;;;11.20;96.20;;;;;;5042723;28;20652;-85
2023/11/11 10:56:32;;;;;;;1.55;1.30;;;11.60;95.90;;;;;;5045607;28;20193;-81
2023/11/11 10:59:02;;;;;;;2.08;1.45;;;11.10;93.70;;;;;;5063819;28;20203;-81
2023/11/11 11:01:29;;;;;;;1.25;0.95;;;10.40;92.90;;;;;;5045624;28;20185;-80
2023/11/11 11:03:55;;;;;;;1.83;1.33;;;11.30;93.60;;;;;;5044838;28;20206;-81
2023/11/11 11:06:36;;;;;;;1.70;1.33;;;10.60;93.50;;;;;;5035922;28;20211;-84
2023/11/11 11:09:38;;;;;;;2.00;1.55;;;10.80;94.40;;;;;;5037151;28;20653;-82
2023/11/11 11:12:12;;;;;;;3.15;1.90;;;10.50;94.40;;;;;;5037420;28;20186;-84
2023/11/11 11:14:37;;;;;;;3.85;2.47;;;10.60;95.10;;;;;;5053235;28;20202;-82
2023/11/11 11:17:04;;;;;;;2.20;1.43;;;10.30;94.00;;;;;;5051255;28;20194;-82
2023/11/11 11:19:31;;;;;;;1.15;1.05;;;10.20;93.90;;;;;;5056065;28;20198;-82
2023/11/11 11:21:56;;;;;;;3.28;1.60;;;10.20;94.30;;;;;;5050828;28;20206;-82
2023/11/11 11:24:24;;;;;;;1.87;1.60;;;10.20;93.80;;;;;;5048549;28;20198;-82
2023/11/11 11:26:50;;;;;;;1.85;1.35;;;10.40;93.50;;;;;;5044368;28;20209;-81
2023/11/11 11:29:20;;;;;;;1.43;1.20;;;10.20;92.90;;;;;;5041071;28;20183;-81
2023/11/11 11:32:09;;;;;;;1.27;1.17;;;10.50;92.30;;;;;;5041620;28;20186;-81
2023/11/11 11:34:55;;;;;;;1.63;1.02;;;10.50;93.20;;;;;;5061091;28;20297;-83
2023/11/11 11:37:21;;;;;;;2.67;1.05;;;10.70;92.90;;;;;;5056017;28;20183;-81
2023/11/11 11:40:07;;;;;;;1.70;1.25;;;10.80;92.90;;;;;;5041792;28;20249;-82
2023/11/11 11:42:35;;;;;;;1.20;1.10;;;10.70;91.70;;;;;;5044544;28;20183;-82
2023/11/11 11:45:01;;;;;;;2.08;1.00;;;10.60;92.10;;;;;;5047308;28;20195;-81
2023/11/11 11:47:33;;;;;;;2.40;1.20;;;10.40;91.60;;;;;;5053234;28;20196;-81
2023/11/11 11:50:03;;;;;;;1.25;1.00;;;10.60;91.30;;;;;;5067927;28;20193;-81
2023/11/11 11:52:29;;;;;;;2.08;0.88;;;10.70;90.90;;;;;;5066535;28;20238;-80
2023/11/11 11:54:55;;;;;;;1.20;1.00;;;10.70;91.10;;;;;;5047651;28;20226;-81
2023/11/11 11:57:25;;;;;;;3.70;1.60;;;10.80;91.30;;;;;;5040419;28;20632;-81
2023/11/11 12:00:13;;;;;;;1.50;1.40;;;11.00;91.80;;;;;;5060269;28;20266;-82
2023/11/11 12:02:40;;;;;;;2.05;1.40;;;10.80;90.80;;;;;;5044236;28;20186;-82
2023/11/11 12:05:12;;;;;;;3.25;1.45;;;11.50;91.60;;;;;;5043087;28;20238;-81
2023/11/11 12:07:39;;;;;;;1.50;1.40;;;11.10;90.80;;;;;;5045386;28;20216;-80
2023/11/11 12:10:07;;;;;;;1.52;1.40;;;11.60;90.80;;;;;;5047118;28;20436;-81
2023/11/11 12:12:32;;;;;;;1.08;0.95;;;11.50;89.90;;;;;;5046649;28;20259;-81
2023/11/11 12:14:58;;;;;;;3.70;1.37;;;11.10;90.10;;;;;;5042583;28;20205;-82
2023/11/11 12:17:25;;;;;;;1.55;1.30;;;11.30;90.00;;;;;;5047257;28;20189;-81
2023/11/11 12:19:53;;;;;;;1.73;1.38;;;11.60;90.40;;;;;;5028625;28;20203;-81
2023/11/11 12:22:19;;;;;;;1.90;1.25;;;11.90;90.50;;;;;;5046072;28;20186;-81
2023/11/11 12:24:45;;;;;;;1.20;1.10;;;12.30;90.20;;;;;;5058336;28;20202;-80
2023/11/11 12:27:11;;;;;;;1.60;1.20;;;12.10;90.00;;;;;;5047446;28;20203;-81
2023/11/11 12:29:43;;;;;;;1.50;1.40;;;12.60;88.90;;;;;;5047778;28;20432;-81
2023/11/11 12:32:15;;;;;;;1.65;1.40;;;12.60;87.90;;;;;;5064061;28;20205;-82
2023/11/11 12:34:43;;;;;;;2.33;1.52;;;12.00;89.00;;;;;;5039412;28;20269;-81
2023/11/11 12:37:09;;;;;;;2.90;1.67;;;11.90;89.80;;;;;;5042746;28;20182;-81
2023/11/11 12:39:53;;;;;;;2.08;1.83;;;12.00;88.90;;;;;;5042299;28;20210;-80
2023/11/11 12:42:28;;;;;;;2.00;1.23;;;11.70;90.30;;;;;;5042398;28;20694;-80
2023/11/11 12:44:53;;;;;;;1.30;1.20;;;11.30;90.30;;;;;;5026402;28;20212;-81
2023/11/11 12:47:19;;;;;;;1.70;1.43;;;11.50;90.40;;;;;;5067475;28;20205;-81
2023/11/11 12:49:50;;;;;;;2.33;1.50;;;11.40;90.80;;;;;;5040031;28;20214;-81
2023/11/11 12:52:21;;;;;;;1.45;1.35;;;11.60;91.80;;;;;;5047857;28;20432;-81
2023/11/11 12:54:48;;;;;;;1.30;1.20;;;11.60;90.90;;;;;;5050975;28;20229;-81
2023/11/11 12:57:31;;;;;;;3.03;1.85;;;11.70;90.90;;;;;;5046475;28;20212;-80
2023/11/11 12:59:57;;;;;;;2.58;1.70;;;11.50;91.00;;;;;;5039895;28;20264;-80
2023/11/11 13:02:23;;;;;;;1.73;1.63;;;11.50;90.90;;;;;;5040491;28;20244;-81
2023/11/11 13:04:50;;;;;;;2.40;1.40;;;11.40;91.30;;;;;;5041405;28;20208;-81
2023/11/11 13:07:20;;;;;;;2.88;1.50;;;11.20;91.30;;;;;;5042052;28;20196;-80
2023/11/11 13:09:46;;;;;;;1.33;1.23;;;11.50;91.80;;;;;;5040344;28;20695;-81